Zprávy METAR z letišť v České republice

LKMT - Ostrava Mošnov, Česká republika
Vzdálenost od této stanice: V 12km
Aktualizováno: 19.08.2018 21:00
 
Teplota vzduchu: 23°C
Vítr: JV 9 km/h
Rosný bod: 15°C
Vlhkost vzduchu: 61%
Tlak vzduchu: 1018 hPa
Stav počasí: Jasno
Oblačnost: jasná obloha
Viditelnost: více než 10 km
2018/08/19 19:00 LKMT 191900Z 13005KT CAVOK 23/15 Q1018 NOSIG
LKTB - Brno Tuřany, Česká republika
Vzdálenost od této stanice: JZ 110km
Aktualizováno: 19.08.2018 21:00
 
Teplota vzduchu: 29°C
Vítr: VSV 13 km/h
Rosný bod: 13°C
Vlhkost vzduchu: 37%
Tlak vzduchu: 1017 hPa
Stav počasí: Jasno
Oblačnost: jasná obloha
Viditelnost: více než 10 km
2018/08/19 19:00 LKTB 191900Z 06007KT CAVOK 29/13 Q1017 NOSIG
 
LKCV - Čáslav, Česká republika
Vzdálenost od této stanice: Z 186km
Aktualizováno: 19.08.2018 21:00
 
Teplota vzduchu: 27°C
Vítr: JV 6 km/h
Rosný bod: 12°C
Vlhkost vzduchu: 39%
Tlak vzduchu: 1017 hPa
Stav počasí: Jasno
Oblačnost: jasná obloha
Viditelnost: více než 10 km
2018/08/19 19:00 LKCV 191900Z 14003KT CAVOK 27/12 Q1017 NOSIG RMK BLU BLU
LKNA - Náměšť n. Osl., Česká republika
Vzdálenost od této stanice: ZJZ 144km
Aktualizováno: 19.08.2018 21:00
 
Teplota vzduchu: 27°C
Vítr: V 7 km/h
Rosný bod: 11°C
Vlhkost vzduchu: 37%
Tlak vzduchu: 1019 hPa
Stav počasí: Jasno
Oblačnost: jasná obloha
Viditelnost: více než 10 km
2018/08/19 19:00 LKNA 191900Z 10004KT CAVOK 27/11 Q1019 NOSIG RMK BLU BLU
 
LKPR - Praha Ruzyně, Česká republika
Vzdálenost od této stanice: ZSZ 268km
Aktualizováno: 19.08.2018 21:00
 
Teplota vzduchu: 27°C
Vítr: SZ 7 km/h
Rosný bod: 12°C
Vlhkost vzduchu: 39%
Tlak vzduchu: 1018 hPa
Stav počasí: Jasno
Oblačnost: jasná obloha
Viditelnost: více než 10 km
2018/08/19 19:00 LKPR 191900Z 32004KT 280V350 CAVOK 27/12 Q1018 NOSIG
LKKV - Karlovy Vary, Česká republika
Vzdálenost od této stanice: ZSZ 365km
Aktualizováno: 19.08.2018 21:00
 
Teplota vzduchu: 24°C
Vítr: ZJZ 7 km/h
Rosný bod: 11°C
Vlhkost vzduchu: 44%
Tlak vzduchu: 1020 hPa
Stav počasí: Jasno
Oblačnost: jasná obloha
Viditelnost: více než 10 km
2018/08/19 19:00 LKKV 191900Z 25004KT CAVOK 24/11 Q1020
 
LKPD - Pardubice, Česká republika
Vzdálenost od této stanice: ZSZ 163km
Aktualizováno: 19.08.2018 21:00
 
Teplota vzduchu: 25°C
Vítr: bezvětří
Rosný bod: 10°C
Vlhkost vzduchu: 39%
Tlak vzduchu: 1017 hPa
Stav počasí: Jasno
Oblačnost: jasná obloha
Viditelnost: více než 10 km
2018/08/19 19:00 LKPD 191900Z 00000KT CAVOK 25/10 Q1017 NOSIG RMK BLU BLU
LKKB - Praha Kbely, Česká republika
Vzdálenost od této stanice: Z 249km
Aktualizováno: 19.08.2018 21:00
 
Teplota vzduchu: 27°C
Index horka: 27°C
Vítr: SV 6 km/h
Rosný bod: 14°C
Vlhkost vzduchu: 45%
Tlak vzduchu: 1017 hPa
Stav počasí: Jasno
Oblačnost: jasná obloha
Viditelnost: více než 10 km
2018/08/19 19:00 LKKB 191900Z 05003KT CAVOK 27/14 Q1017 NOSIG
 
LKLN - Plzeň Líně, Česká republika
Vzdálenost od této stanice: Z 337km
Aktualizováno: 19.08.2018 21:00
 
Teplota vzduchu: 25°C
Vítr: bezvětří
Rosný bod: 12°C
Vlhkost vzduchu: 44%
Tlak vzduchu: 1018 hPa
Stav počasí: Jasno
Oblačnost: jasná obloha
Viditelnost: více než 10 km
2018/08/19 19:00 LKLN 191900Z AUTO 00000KT CAVOK 25/12 Q1018
LKVO - Vodochody, Česká republika
Vzdálenost od této stanice: ZSZ 261km
Aktualizováno: 18.08.2018 13:00
Není aktuální
 
Teplota vzduchu: 24°C
Vítr: S 15 km/h
Rosný bod: 13°C
Vlhkost vzduchu: 50%
Tlak vzduchu: 1021 hPa
Stav počasí: Jasno
Oblačnost: jasná obloha
Viditelnost: více než 10 km
2018/08/18 11:00 LKVO 181100Z 35008KT 290V100 CAVOK 24/13 Q1021

Metar display script od Saratoga-Weather.org
upravil a přeložil Miloš Jiřík